Time;durP1;ratioP1;P1;durP2;ratioP2;P2;SDS_P1;SDS_P2;PMS_P1;PMS_P2;Temp;Humidity;BMP_temperature;BMP_pressure;BME280_temperature;BME280_humidity;BME280_pressure;Samples;Min_cycle;Max_cycle;Signal;HPM_P1;HPM_P2
2022/10/25 00:00:39;;;;;;;8.85;7.90;;;22.50;99.90;;;;;;6222141;28;84063;-68
2022/10/25 00:03:42;;;;;;;7.78;6.97;;;22.50;99.90;;;;;;6209267;28;83987;-68
2022/10/25 00:06:44;;;;;;;8.40;7.50;;;22.50;99.90;;;;;;6232959;28;84115;-67
2022/10/25 00:09:46;;;;;;;7.90;7.10;;;22.50;99.90;;;;;;6233203;28;84151;-67
2022/10/25 00:12:48;;;;;;;8.02;7.22;;;22.50;99.90;;;;;;6210146;28;84143;-68
2022/10/25 00:15:52;;;;;;;8.65;7.72;;;22.40;99.90;;;;;;6228244;28;83343;-67
2022/10/25 00:18:54;;;;;;;8.23;7.43;;;22.50;99.90;;;;;;6209950;28;83427;-67
2022/10/25 00:21:56;;;;;;;8.30;7.30;;;22.50;99.90;;;;;;6219683;28;84149;-68
2022/10/25 00:24:58;;;;;;;8.38;7.57;;;22.50;99.90;;;;;;6223600;28;84183;-67
2022/10/25 00:28:00;;;;;;;7.78;7.03;;;22.40;99.90;;;;;;6212308;28;85149;-68
2022/10/25 00:31:05;;;;;;;8.32;7.47;;;22.40;99.90;;;;;;6219954;28;84083;-68
2022/10/25 00:34:07;;;;;;;8.25;7.13;;;22.40;99.90;;;;;;6223287;28;84278;-68
2022/10/25 00:37:09;;;;;;;7.90;7.10;;;22.40;99.90;;;;;;6227339;28;85329;-67
2022/10/25 00:40:12;;;;;;;7.85;7.05;;;22.40;99.90;;;;;;6217945;28;84385;-67
2022/10/25 00:43:33;;;;;;;7.60;6.90;;;22.40;99.90;;;;;;6215859;28;84038;-67
2022/10/25 00:46:36;;;;;;;8.32;7.43;;;22.30;99.90;;;;;;6230279;28;84077;-67
2022/10/25 00:49:38;;;;;;;7.78;7.03;;;22.40;99.90;;;;;;6217487;28;83669;-68
2022/10/25 00:52:43;;;;;;;8.25;7.45;;;22.40;99.90;;;;;;6217863;28;84056;-67
2022/10/25 00:55:48;;;;;;;7.93;7.13;;;22.40;99.90;;;;;;6234991;28;83033;-67
2022/10/25 00:58:55;;;;;;;7.90;7.20;;;22.40;99.90;;;;;;6215827;28;86006;-68
2022/10/25 01:01:58;;;;;;;7.88;7.07;;;22.40;99.90;;;;;;6233033;28;82906;-68
2022/10/25 01:05:01;;;;;;;8.05;7.25;;;22.40;99.90;;;;;;6229093;28;84131;-68
2022/10/25 01:08:03;;;;;;;7.80;7.03;;;22.40;99.90;;;;;;6216346;28;83927;-67
2022/10/25 01:11:06;;;;;;;8.35;7.38;;;22.40;99.90;;;;;;6236664;28;84106;-67
2022/10/25 01:14:10;;;;;;;7.95;7.15;;;22.30;99.90;;;;;;6229265;28;84124;-67
2022/10/25 01:17:19;;;;;;;7.70;6.97;;;22.40;99.90;;;;;;6212258;28;84011;-67
2022/10/25 01:21:15;;;;;;;7.43;6.72;;;22.40;99.90;;;;;;6228071;28;84939;-68
2022/10/25 01:24:34;;;;;;;7.28;6.57;;;22.40;99.90;;;;;;6166567;28;84095;-68
2022/10/25 01:27:52;;;;;;;7.53;6.72;;;22.40;99.90;;;;;;6215156;28;84258;-67
2022/10/25 01:31:11;;;;;;;7.15;6.45;;;22.30;99.90;;;;;;6216597;28;86365;-67
2022/10/25 01:34:17;;;;;;;7.50;6.80;;;22.30;99.90;;;;;;6223393;28;84354;-68
2022/10/25 01:37:26;;;;;;;7.85;7.05;;;22.30;99.90;;;;;;6221837;28;84080;-67
2022/10/25 01:40:34;;;;;;;7.30;6.60;;;22.30;99.90;;;;;;6225849;28;84029;-68
2022/10/25 01:43:47;;;;;;;7.88;7.10;;;22.30;99.90;;;;;;6224862;28;82950;-67
2022/10/25 01:46:56;;;;;;;7.55;6.82;;;22.30;99.90;;;;;;6220336;28;84060;-67
2022/10/25 01:50:00;;;;;;;7.25;6.55;;;22.30;99.90;;;;;;6223654;28;84285;-67
2022/10/25 01:53:02;;;;;;;7.45;6.72;;;22.30;99.90;;;;;;6214766;28;83499;-67
2022/10/25 01:56:06;;;;;;;7.70;6.90;;;22.30;99.90;;;;;;6224844;28;84244;-67
2022/10/25 01:59:25;;;;;;;7.55;6.57;;;22.30;99.90;;;;;;6229747;28;84079;-67
2022/10/25 02:02:35;;;;;;;7.63;6.80;;;22.30;99.90;;;;;;6210481;28;85178;-67
2022/10/25 02:05:48;;;;;;;6.63;5.95;;;22.30;99.90;;;;;;6214129;28;84036;-68
2022/10/25 02:08:57;;;;;;;7.60;6.40;;;22.30;99.90;;;;;;6212322;28;84004;-67
2022/10/25 02:12:00;;;;;;;6.88;6.28;;;22.30;99.90;;;;;;6221948;28;84018;-68
2022/10/25 02:15:09;;;;;;;6.80;6.20;;;22.30;99.90;;;;;;6230793;28;83995;-68
2022/10/25 02:18:19;;;;;;;7.28;6.57;;;22.30;99.90;;;;;;6225631;28;84057;-67
2022/10/25 02:21:22;;;;;;;6.75;6.10;;;22.30;99.90;;;;;;6233752;28;84080;-68
2022/10/25 02:24:27;;;;;;;6.07;5.47;;;22.30;99.90;;;;;;6229627;28;83468;-68
2022/10/25 02:27:30;;;;;;;7.15;6.45;;;22.30;99.90;;;;;;6230159;28;83994;-67
2022/10/25 02:30:35;;;;;;;6.65;6.05;;;22.20;99.90;;;;;;6234770;28;84015;-67
2022/10/25 02:33:38;;;;;;;7.03;5.95;;;22.20;99.90;;;;;;6233082;28;84992;-68
2022/10/25 02:36:40;;;;;;;7.03;6.35;;;22.20;99.90;;;;;;6224518;28;83162;-67
2022/10/25 02:39:44;;;;;;;6.45;5.72;;;22.20;99.90;;;;;;6233173;28;83956;-68
2022/10/25 02:42:46;;;;;;;6.22;5.63;;;22.20;99.90;;;;;;6235731;28;84071;-68
2022/10/25 02:45:48;;;;;;;6.38;5.78;;;22.20;99.90;;;;;;6222405;28;84100;-67
2022/10/25 02:48:52;;;;;;;6.53;5.93;;;22.20;99.90;;;;;;6221039;28;84337;-67
2022/10/25 02:51:54;;;;;;;6.20;5.60;;;22.20;99.90;;;;;;6224292;28;84901;-67
2022/10/25 02:54:56;;;;;;;6.22;5.63;;;22.20;99.90;;;;;;6227196;28;83716;-68
2022/10/25 02:57:59;;;;;;;6.50;5.90;;;22.20;99.90;;;;;;6220476;28;84099;-68
2022/10/25 03:01:02;;;;;;;7.90;6.43;;;22.20;99.90;;;;;;6220788;28;84161;-67
2022/10/25 03:04:05;;;;;;;6.68;5.85;;;22.20;99.90;;;;;;6232682;28;85051;-67
2022/10/25 03:07:07;;;;;;;5.75;5.22;;;22.20;99.90;;;;;;6211968;28;84316;-67
2022/10/25 03:10:09;;;;;;;6.30;5.70;;;22.20;99.90;;;;;;6210888;28;84146;-68
2022/10/25 03:13:11;;;;;;;5.90;5.32;;;22.20;99.90;;;;;;6219784;28;82945;-68
2022/10/25 03:16:13;;;;;;;6.13;5.53;;;22.20;99.90;;;;;;6229458;28;83941;-67
2022/10/25 03:19:17;;;;;;;6.40;5.80;;;22.20;99.90;;;;;;6225575;28;84377;-67
2022/10/25 03:22:19;;;;;;;6.30;5.70;;;22.20;99.90;;;;;;6210968;28;83954;-68
2022/10/25 03:25:21;;;;;;;7.22;5.65;;;22.20;99.90;;;;;;6211049;28;83471;-67
2022/10/25 03:28:24;;;;;;;6.20;5.60;;;22.20;99.90;;;;;;6220608;28;84033;-67
2022/10/25 03:31:26;;;;;;;6.15;5.55;;;22.20;99.90;;;;;;6224239;28;84337;-68
2022/10/25 03:34:30;;;;;;;6.00;5.40;;;22.20;99.90;;;;;;6208887;28;84992;-67
2022/10/25 03:37:32;;;;;;;6.32;5.72;;;22.20;99.90;;;;;;6221826;28;84020;-67
2022/10/25 03:40:34;;;;;;;5.82;5.30;;;22.20;99.90;;;;;;6214516;28;84049;-67
2022/10/25 03:43:36;;;;;;;6.32;5.47;;;22.20;99.90;;;;;;6220691;28;84070;-67
2022/10/25 03:46:38;;;;;;;6.75;5.63;;;22.20;99.90;;;;;;6222346;28;84160;-67
2022/10/25 03:49:41;;;;;;;5.22;4.75;;;22.20;99.90;;;;;;6233236;28;84171;-68
2022/10/25 03:52:43;;;;;;;5.30;4.80;;;22.20;99.90;;;;;;6222472;28;84058;-67
2022/10/25 03:55:46;;;;;;;6.10;5.50;;;22.20;99.90;;;;;;6212588;28;83251;-67
2022/10/25 03:58:48;;;;;;;5.55;5.05;;;22.30;99.90;;;;;;6219526;28;84116;-67
2022/10/25 04:01:50;;;;;;;5.70;5.13;;;22.30;99.90;;;;;;6232379;28;82945;-67
2022/10/25 04:04:53;;;;;;;5.82;5.32;;;22.20;99.90;;;;;;6224679;28;85233;-67
2022/10/25 04:07:55;;;;;;;5.70;5.10;;;22.20;99.90;;;;;;6220994;28;83076;-67
2022/10/25 04:10:57;;;;;;;5.78;5.22;;;22.30;99.90;;;;;;6212496;28;84205;-68
2022/10/25 04:13:59;;;;;;;5.97;5.45;;;22.30;99.90;;;;;;6219753;28;83987;-67
2022/10/25 04:17:01;;;;;;;5.60;5.10;;;22.30;99.90;;;;;;6225794;28;84044;-67
2022/10/25 04:20:05;;;;;;;5.97;5.45;;;22.30;99.90;;;;;;6225351;28;82979;-68
2022/10/25 04:23:08;;;;;;;6.18;5.50;;;22.30;99.90;;;;;;6229101;28;84101;-67
2022/10/25 04:26:10;;;;;;;5.85;5.25;;;22.30;99.90;;;;;;6230041;28;82366;-67
2022/10/25 04:29:12;;;;;;;6.10;5.38;;;22.30;99.90;;;;;;6220098;28;83012;-66
2022/10/25 04:32:14;;;;;;;6.25;5.65;;;22.30;99.90;;;;;;6223412;28;84153;-67
2022/10/25 04:35:17;;;;;;;6.47;5.80;;;22.40;99.90;;;;;;6212220;28;85123;-66
2022/10/25 04:38:20;;;;;;;7.10;6.40;;;22.40;99.90;;;;;;6218703;28;84038;-66
2022/10/25 04:41:22;;;;;;;6.32;5.72;;;22.30;99.90;;;;;;6223341;28;82015;-66
2022/10/25 04:44:24;;;;;;;7.45;6.75;;;22.40;99.90;;;;;;6221470;28;84202;-67
2022/10/25 04:47:26;;;;;;;7.55;6.75;;;22.40;99.90;;;;;;6219903;28;84547;-66
2022/10/25 04:50:29;;;;;;;7.97;6.78;;;22.50;99.90;;;;;;6216768;28;84009;-67
2022/10/25 04:53:31;;;;;;;7.90;6.97;;;22.50;99.90;;;;;;6211852;28;83958;-67
2022/10/25 04:56:33;;;;;;;8.15;6.80;;;22.50;99.90;;;;;;6223025;28;83396;-67
2022/10/25 04:59:35;;;;;;;7.65;6.85;;;22.50;99.90;;;;;;6215591;28;83000;-67
2022/10/25 05:02:37;;;;;;;10.45;7.50;;;22.50;99.90;;;;;;6230329;28;82023;-67
2022/10/25 05:05:41;;;;;;;8.15;7.20;;;22.50;99.90;;;;;;6220712;28;85390;-67
2022/10/25 05:08:46;;;;;;;9.65;6.72;;;22.60;99.90;;;;;;6213689;28;84127;-66
2022/10/25 05:11:48;;;;;;;8.20;6.93;;;22.60;99.90;;;;;;6215740;28;84070;-66
2022/10/25 05:14:50;;;;;;;8.65;7.50;;;22.60;99.90;;;;;;6218261;28;84066;-67
2022/10/25 05:17:52;;;;;;;7.65;6.88;;;22.60;99.90;;;;;;6219441;28;84066;-66
2022/10/25 05:20:56;;;;;;;9.00;7.30;;;22.60;99.90;;;;;;6220659;28;84178;-67
2022/10/25 05:23:59;;;;;;;8.10;7.30;;;22.60;99.90;;;;;;6217087;28;82944;-66
2022/10/25 05:27:01;;;;;;;8.57;7.68;;;22.60;99.90;;;;;;6219387;28;83341;-67
2022/10/25 05:30:03;;;;;;;9.00;7.32;;;22.60;99.90;;;;;;6219161;28;84053;-66
2022/10/25 05:33:05;;;;;;;7.97;6.85;;;22.60;99.90;;;;;;6220738;28;84132;-67
2022/10/25 05:36:09;;;;;;;8.90;7.40;;;22.60;99.90;;;;;;6222836;28;84129;-66
2022/10/25 05:39:11;;;;;;;8.38;7.50;;;22.70;99.90;;;;;;6234214;28;82737;-66
2022/10/25 05:42:13;;;;;;;7.95;7.15;;;22.60;99.90;;;;;;6222285;28;84105;-66
2022/10/25 05:45:15;;;;;;;8.02;7.15;;;22.60;99.90;;;;;;6219436;28;84186;-66
2022/10/25 05:48:18;;;;;;;8.35;7.38;;;22.70;99.90;;;;;;6222820;28;84147;-67
2022/10/25 05:51:25;;;;;;;8.60;7.53;;;22.70;99.90;;;;;;6219129;28;83019;-66
2022/10/25 05:54:27;;;;;;;7.47;6.78;;;22.60;99.90;;;;;;6228882;28;84010;-66
2022/10/25 05:57:29;;;;;;;8.32;7.47;;;22.70;99.90;;;;;;6222168;28;83262;-66
2022/10/25 06:00:31;;;;;;;8.65;7.22;;;22.70;99.90;;;;;;6212934;28;83504;-66
2022/10/25 06:03:33;;;;;;;8.70;7.22;;;22.70;99.90;;;;;;6220941;28;84084;-66
2022/10/25 06:06:38;;;;;;;8.02;7.22;;;22.70;99.90;;;;;;6228787;28;84948;-66
2022/10/25 06:09:40;;;;;;;9.30;7.50;;;22.70;99.90;;;;;;6235802;28;82958;-66
2022/10/25 06:12:42;;;;;;;7.88;7.07;;;22.70;99.90;;;;;;6229504;28;82833;-66
2022/10/25 06:15:45;;;;;;;10.60;7.97;;;22.70;99.90;;;;;;6225283;28;84276;-66
2022/10/25 06:18:47;;;;;;;9.55;8.13;;;22.70;99.90;;;;;;6229347;28;84203;-66
2022/10/25 06:21:50;;;;;;;8.10;7.30;;;22.70;99.90;;;;;;6225539;28;84164;-66
2022/10/25 06:24:52;;;;;;;8.60;7.55;;;22.70;99.90;;;;;;6219691;28;82994;-66
2022/10/25 06:27:54;;;;;;;8.82;7.28;;;22.70;99.90;;;;;;6217351;28;83760;-66
2022/10/25 06:31:01;;;;;;;8.38;7.45;;;22.70;99.90;;;;;;6223763;28;84026;-66
2022/10/25 06:34:03;;;;;;;8.43;7.50;;;22.70;99.90;;;;;;6220772;28;84684;-66
2022/10/25 06:37:07;;;;;;;8.48;7.60;;;22.70;99.90;;;;;;6220706;28;84997;-66
2022/10/25 06:40:10;;;;;;;8.68;7.25;;;22.70;99.90;;;;;;6223443;28;84372;-66
2022/10/25 06:43:12;;;;;;;7.88;7.07;;;22.70;99.90;;;;;;6219285;28;83901;-66
2022/10/25 06:46:20;;;;;;;8.77;7.53;;;22.70;99.90;;;;;;6215408;28;83000;-66
2022/10/25 06:49:22;;;;;;;7.68;6.88;;;22.70;99.90;;;;;;6214584;28;83028;-66
2022/10/25 06:52:27;;;;;;;7.35;6.65;;;22.70;99.90;;;;;;6229924;28;84002;-67
2022/10/25 06:55:29;;;;;;;8.50;7.22;;;22.70;99.90;;;;;;6211599;28;82977;-66
2022/10/25 06:58:32;;;;;;;7.82;7.03;;;22.70;99.90;;;;;;6217080;28;82118;-66
2022/10/25 07:01:34;;;;;;;8.05;7.25;;;22.80;99.90;;;;;;6208472;28;84326;-65
2022/10/25 07:04:36;;;;;;;7.88;6.85;;;22.70;99.90;;;;;;6226812;28;84301;-66
2022/10/25 07:07:39;;;;;;;8.65;7.30;;;22.80;99.90;;;;;;6234267;28;84908;-66
2022/10/25 07:10:41;;;;;;;8.18;7.20;;;22.80;99.90;;;;;;6217405;28;84058;-66
2022/10/25 07:13:44;;;;;;;7.88;7.07;;;22.80;99.90;;;;;;6229614;28;84078;-66
2022/10/25 07:16:46;;;;;;;8.25;7.43;;;22.70;99.90;;;;;;6225845;28;84045;-66
2022/10/25 07:19:48;;;;;;;7.95;6.75;;;22.70;99.90;;;;;;6227877;28;84113;-67
2022/10/25 07:22:51;;;;;;;8.07;7.20;;;22.80;99.90;;;;;;6228315;28;84391;-66
2022/10/25 07:25:53;;;;;;;7.85;7.05;;;22.80;99.90;;;;;;6227825;28;84051;-66
2022/10/25 07:28:57;;;;;;;7.55;6.75;;;22.70;99.90;;;;;;6228022;28;82764;-66
2022/10/25 07:31:59;;;;;;;7.57;6.75;;;22.80;99.90;;;;;;6231506;28;82902;-66
2022/10/25 07:35:01;;;;;;;8.45;6.88;;;22.80;99.90;;;;;;6218450;28;83987;-67
2022/10/25 07:38:04;;;;;;;7.88;7.07;;;22.80;99.90;;;;;;6223398;28;83779;-66
2022/10/25 07:41:07;;;;;;;7.50;6.80;;;22.80;99.90;;;;;;6229750;28;84099;-67
2022/10/25 07:44:09;;;;;;;7.53;6.82;;;22.80;99.90;;;;;;6229586;28;84029;-66
2022/10/25 07:47:11;;;;;;;7.20;6.50;;;22.80;99.90;;;;;;6229671;28;84024;-67
2022/10/25 07:50:13;;;;;;;6.93;6.22;;;22.80;99.90;;;;;;6222817;28;84002;-66
2022/10/25 07:53:17;;;;;;;7.57;6.75;;;22.80;99.90;;;;;;6215331;28;84046;-67
2022/10/25 07:56:20;;;;;;;7.47;6.28;;;22.80;99.90;;;;;;6219611;28;83974;-67
2022/10/25 07:59:22;;;;;;;8.75;6.72;;;22.80;99.90;;;;;;6234847;28;83478;-67
2022/10/25 08:02:24;;;;;;;7.45;6.47;;;22.80;99.90;;;;;;6220425;28;84331;-66
2022/10/25 08:05:26;;;;;;;6.95;6.25;;;22.80;99.90;;;;;;6221969;28;83077;-66
2022/10/25 08:08:30;;;;;;;6.97;6.28;;;22.80;99.90;;;;;;6217497;28;85061;-67
2022/10/25 08:11:32;;;;;;;7.03;6.32;;;22.80;99.90;;;;;;6217768;28;83952;-67
2022/10/25 08:14:34;;;;;;;6.80;6.10;;;22.80;99.90;;;;;;6226484;28;84422;-67
2022/10/25 08:17:36;;;;;;;7.05;6.35;;;22.80;99.90;;;;;;6216473;28;83972;-67
2022/10/25 08:20:38;;;;;;;6.78;6.07;;;22.80;99.90;;;;;;6229400;28;83939;-67
2022/10/25 08:23:41;;;;;;;6.22;5.63;;;22.80;99.90;;;;;;6206741;28;84045;-66
2022/10/25 08:26:44;;;;;;;6.95;6.25;;;22.90;99.90;;;;;;6224561;28;84400;-67
2022/10/25 08:29:46;;;;;;;7.07;6.22;;;22.80;99.90;;;;;;6221837;28;83361;-67
2022/10/25 08:32:48;;;;;;;6.90;6.13;;;22.80;99.90;;;;;;6208766;28;84073;-67
2022/10/25 08:35:50;;;;;;;6.82;6.15;;;22.90;99.90;;;;;;6229357;28;85804;-67
2022/10/25 08:38:53;;;;;;;6.60;5.90;;;22.80;99.90;;;;;;6201890;28;83973;-66
2022/10/25 08:41:57;;;;;;;6.50;5.80;;;22.80;99.90;;;;;;6233169;28;84099;-66
2022/10/25 08:45:16;;;;;;;6.82;6.07;;;22.80;99.90;;;;;;6221097;28;83974;-66
2022/10/25 08:48:22;;;;;;;6.93;5.85;;;22.80;99.90;;;;;;6221138;28;84091;-66
2022/10/25 08:51:29;;;;;;;7.00;6.30;;;22.90;99.90;;;;;;6223503;28;84136;-66
2022/10/25 08:54:37;;;;;;;6.20;5.60;;;22.90;99.90;;;;;;6217675;28;84042;-66
2022/10/25 08:57:45;;;;;;;7.32;6.07;;;22.90;99.90;;;;;;6214458;28;84097;-66
2022/10/25 09:00:49;;;;;;;6.18;5.50;;;22.90;99.90;;;;;;6212819;28;82853;-66
2022/10/25 09:03:51;;;;;;;6.30;5.70;;;22.90;99.90;;;;;;6212951;28;84020;-66
2022/10/25 09:07:04;;;;;;;6.10;5.50;;;22.90;99.90;;;;;;6225232;28;84236;-67
2022/10/25 09:10:15;;;;;;;6.05;5.40;;;22.90;99.90;;;;;;6224794;28;85055;-67
2022/10/25 09:13:32;;;;;;;6.32;5.72;;;22.90;99.90;;;;;;6235161;28;83748;-66
2022/10/25 09:16:42;;;;;;;6.53;5.47;;;22.90;99.90;;;;;;6224687;28;83990;-66
2022/10/25 09:20:00;;;;;;;6.28;5.68;;;22.90;99.90;;;;;;6212222;28;84076;-66
2022/10/25 09:23:13;;;;;;;5.57;5.00;;;22.90;99.90;;;;;;6231796;28;84123;-66
2022/10/25 09:26:24;;;;;;;6.05;5.50;;;22.90;99.90;;;;;;6213254;28;82916;-66
2022/10/25 09:29:30;;;;;;;5.97;5.38;;;23.00;99.90;;;;;;6221363;28;84097;-66
2022/10/25 09:32:38;;;;;;;4.80;4.30;;;22.90;99.90;;;;;;6234307;28;83276;-66
2022/10/25 09:35:44;;;;;;;5.25;4.20;;;22.90;99.90;;;;;;6233478;28;83988;-66
2022/10/25 09:38:51;;;;;;;6.55;5.22;;;23.00;99.90;;;;;;6221124;28;84038;-66
2022/10/25 09:41:57;;;;;;;5.53;5.03;;;22.90;99.90;;;;;;6213645;28;84902;-66
2022/10/25 09:45:01;;;;;;;5.10;4.60;;;22.90;99.90;;;;;;6226805;28;83967;-66
2022/10/25 09:48:09;;;;;;;5.57;5.05;;;22.90;99.90;;;;;;6224176;28;84118;-66
2022/10/25 09:51:15;;;;;;;5.18;4.68;;;22.90;99.90;;;;;;6223410;28;83026;-66
2022/10/25 09:54:27;;;;;;;5.32;4.80;;;22.90;99.90;;;;;;6214505;28;84066;-66
2022/10/25 09:57:30;;;;;;;5.57;5.03;;;22.90;99.90;;;;;;6220326;28;84411;-66
2022/10/25 10:00:36;;;;;;;5.45;4.93;;;22.90;99.90;;;;;;6232824;28;84370;-66
2022/10/25 10:03:40;;;;;;;5.18;4.68;;;22.90;99.90;;;;;;6224497;28;83559;-66
2022/10/25 10:06:42;;;;;;;5.00;4.50;;;22.90;99.90;;;;;;6222598;28;84223;-66
2022/10/25 10:09:45;;;;;;;5.13;4.50;;;22.90;99.90;;;;;;6219708;28;82995;-66
2022/10/25 10:12:53;;;;;;;5.75;4.88;;;22.90;99.90;;;;;;6215766;28;83908;-66
2022/10/25 10:15:57;;;;;;;5.10;4.60;;;22.90;99.90;;;;;;6223363;28;82972;-65
2022/10/25 10:19:17;;;;;;;5.32;4.70;;;22.90;99.90;;;;;;6221906;28;84315;-65
2022/10/25 10:22:19;;;;;;;5.25;4.75;;;22.90;99.90;;;;;;6219631;28;84314;-66
2022/10/25 10:25:25;;;;;;;8.60;5.93;;;22.90;99.90;;;;;;6210062;28;85678;-67
2022/10/25 10:28:29;;;;;;;5.05;4.57;;;22.90;99.90;;;;;;6210544;28;83003;-66
2022/10/25 10:31:36;;;;;;;4.65;4.25;;;22.90;99.90;;;;;;6224445;28;84011;-66
2022/10/25 10:34:43;;;;;;;4.97;4.47;;;22.90;99.90;;;;;;6213585;28;83960;-66
2022/10/25 10:37:45;;;;;;;4.32;3.92;;;22.90;99.90;;;;;;6227057;28;82948;-66
2022/10/25 10:40:47;;;;;;;4.90;4.32;;;22.90;99.90;;;;;;6224878;28;84042;-66
2022/10/25 10:43:51;;;;;;;4.95;4.45;;;22.90;99.90;;;;;;6222226;28;85247;-66
2022/10/25 10:46:54;;;;;;;5.05;4.25;;;22.90;99.90;;;;;;6218962;28;84072;-66
2022/10/25 10:49:56;;;;;;;5.07;4.57;;;22.80;99.90;;;;;;6232000;28;84068;-66
2022/10/25 10:53:00;;;;;;;5.05;4.50;;;22.80;99.90;;;;;;6218701;28;82944;-66
2022/10/25 10:56:04;;;;;;;6.03;4.50;;;22.90;99.90;;;;;;6225598;28;84013;-66
2022/10/25 10:59:29;;;;;;;5.05;4.38;;;22.90;99.90;;;;;;6221493;28;84034;-66
2022/10/25 11:02:39;;;;;;;5.47;4.78;;;22.90;99.90;;;;;;6222384;28;84025;-66
2022/10/25 11:05:53;;;;;;;4.55;4.07;;;22.80;99.90;;;;;;6222094;28;83388;-66
2022/10/25 11:09:15;;;;;;;5.05;4.55;;;22.90;99.90;;;;;;6211292;28;83984;-66
2022/10/25 11:12:17;;;;;;;4.47;4.07;;;22.80;99.90;;;;;;6213188;28;83971;-67
2022/10/25 11:15:21;;;;;;;5.20;4.53;;;22.90;99.90;;;;;;6209874;28;85179;-66
2022/10/25 11:18:35;;;;;;;4.35;3.95;;;22.90;99.90;;;;;;6212622;28;84002;-67
2022/10/25 11:22:01;;;;;;;5.95;4.10;;;22.80;99.90;;;;;;6223704;28;84069;-67
2022/10/25 11:25:21;;;;;;;4.18;3.78;;;22.80;99.90;;;;;;6212255;28;83948;-67
2022/10/25 11:28:36;;;;;;;4.70;4.25;;;22.90;99.90;;;;;;6221941;28;84096;-66
2022/10/25 11:31:53;;;;;;;5.95;4.30;;;22.80;99.90;;;;;;6210857;28;85555;-67
2022/10/25 11:35:04;;;;;;;5.90;4.43;;;22.80;99.90;;;;;;6215851;28;83161;-66
2022/10/25 11:38:15;;;;;;;4.78;4.28;;;22.80;99.90;;;;;;6221248;28;83308;-66
2022/10/25 11:41:29;;;;;;;4.28;3.88;;;22.80;99.90;;;;;;6211966;28;84152;-67
2022/10/25 11:44:49;;;;;;;4.78;3.92;;;22.80;99.90;;;;;;6233661;28;84043;-67
2022/10/25 11:48:09;;;;;;;4.57;4.07;;;22.80;99.90;;;;;;6209385;28;85059;-67
2022/10/25 11:51:21;;;;;;;4.40;4.00;;;22.80;99.90;;;;;;6222900;28;84149;-67
2022/10/25 11:54:34;;;;;;;4.32;3.92;;;22.80;99.90;;;;;;6222217;28;84033;-67
2022/10/25 11:57:45;;;;;;;4.72;4.22;;;22.80;99.90;;;;;;6212102;28;84192;-67
2022/10/25 12:00:57;;;;;;;4.57;4.18;;;22.80;99.90;;;;;;6221289;28;84289;-67
2022/10/25 12:04:22;;;;;;;5.25;4.00;;;22.80;99.90;;;;;;6223000;28;84105;-66
2022/10/25 12:07:29;;;;;;;4.35;3.92;;;22.80;99.90;;;;;;6221672;28;84275;-66
2022/10/25 12:10:35;;;;;;;4.30;3.90;;;22.80;99.90;;;;;;6211591;28;83310;-67
2022/10/25 12:13:42;;;;;;;4.00;3.60;;;22.80;99.90;;;;;;6222579;28;84103;-66
2022/10/25 12:16:45;;;;;;;4.38;3.97;;;22.80;99.90;;;;;;6207976;28;84055;-67
2022/10/25 12:19:51;;;;;;;4.07;3.55;;;22.80;99.90;;;;;;6222278;28;85511;-67
2022/10/25 12:22:56;;;;;;;3.97;3.58;;;22.80;99.90;;;;;;6215012;28;84187;-67
2022/10/25 12:26:04;;;;;;;4.20;3.80;;;22.80;99.90;;;;;;6214445;28;84102;-67
2022/10/25 12:29:14;;;;;;;3.95;3.55;;;22.70;99.90;;;;;;6222968;28;83226;-66
2022/10/25 12:32:20;;;;;;;4.15;3.75;;;22.80;99.90;;;;;;6230490;28;84013;-67
2022/10/25 12:35:28;;;;;;;4.28;3.70;;;22.80;99.90;;;;;;6220088;28;83960;-66
2022/10/25 12:38:34;;;;;;;5.20;4.00;;;22.80;99.90;;;;;;6229226;28;84376;-67
2022/10/25 12:41:39;;;;;;;4.75;3.90;;;22.70;99.90;;;;;;6236637;28;83639;-67
2022/10/25 12:45:19;;;;;;;3.70;3.40;;;22.80;99.90;;;;;;6220248;28;84109;-67
2022/10/25 12:49:02;;;;;;;3.92;3.53;;;22.70;99.90;;;;;;6207621;28;84412;-67
2022/10/25 12:52:26;;;;;;;4.75;3.78;;;22.70;99.90;;;;;;6227942;28;84932;-67
2022/10/25 12:55:40;;;;;;;4.18;3.78;;;22.70;99.90;;;;;;6213657;28;84089;-67
2022/10/25 12:58:58;;;;;;;4.22;3.72;;;22.70;99.90;;;;;;6221158;28;82950;-68
2022/10/25 13:02:19;;;;;;;3.85;3.38;;;22.70;99.90;;;;;;6216122;28;84038;-67
2022/10/25 13:05:52;;;;;;;3.55;3.25;;;22.70;99.90;;;;;;6225405;28;84067;-67
2022/10/25 13:09:01;;;;;;;3.58;3.28;;;22.70;99.90;;;;;;6209190;28;83181;-67
2022/10/25 13:12:06;;;;;;;5.15;3.50;;;22.70;99.90;;;;;;6225105;28;84026;-67
2022/10/25 13:15:18;;;;;;;5.78;3.67;;;22.70;99.90;;;;;;6230367;28;83331;-66
2022/10/25 13:18:39;;;;;;;3.90;3.30;;;22.70;99.90;;;;;;6213908;28;84068;-67
2022/10/25 13:22:06;;;;;;;5.05;3.42;;;22.70;99.90;;;;;;6215591;28;84111;-67
2022/10/25 13:25:38;;;;;;;3.97;3.25;;;22.70;99.90;;;;;;6198480;28;85123;-67
2022/10/25 13:28:46;;;;;;;4.05;3.33;;;22.70;99.90;;;;;;6216462;28;84249;-67
2022/10/25 13:31:58;;;;;;;3.95;3.42;;;22.70;99.90;;;;;;6221513;28;83995;-67
2022/10/25 13:35:02;;;;;;;4.65;3.60;;;22.60;99.90;;;;;;6215372;28;82910;-67
2022/10/25 13:38:08;;;;;;;4.53;3.67;;;22.60;99.90;;;;;;6214395;28;84141;-67
2022/10/25 13:41:15;;;;;;;4.43;3.38;;;22.70;99.90;;;;;;6215389;28;84126;-67
2022/10/25 13:44:24;;;;;;;4.07;3.20;;;22.60;99.90;;;;;;6224927;28;84052;-66
2022/10/25 13:47:39;;;;;;;5.80;3.60;;;22.60;99.90;;;;;;6228739;28;82191;-67
2022/10/25 13:50:44;;;;;;;3.30;3.00;;;22.60;99.90;;;;;;6223578;28;84427;-67
2022/10/25 13:53:49;;;;;;;4.47;3.58;;;22.60;99.90;;;;;;6233542;28;84028;-67
2022/10/25 13:56:53;;;;;;;3.30;3.00;;;22.60;99.90;;;;;;6222388;28;85041;-67
2022/10/25 14:00:10;;;;;;;3.75;3.13;;;22.60;99.90;;;;;;6215680;28;84708;-67
2022/10/25 14:03:36;;;;;;;3.97;3.20;;;22.60;99.90;;;;;;6218377;28;84026;-67
2022/10/25 14:06:40;;;;;;;3.60;3.20;;;22.50;99.90;;;;;;6218406;28;83921;-67
2022/10/25 14:09:43;;;;;;;3.40;3.10;;;22.60;99.90;;;;;;6218475;28;84440;-66
2022/10/25 14:12:48;;;;;;;3.55;3.25;;;22.60;99.90;;;;;;6221528;28;84070;-67
2022/10/25 14:15:57;;;;;;;3.72;3.22;;;22.60;99.90;;;;;;6223417;28;82905;-67
2022/10/25 14:19:03;;;;;;;4.00;3.22;;;22.60;99.90;;;;;;6218013;28;83014;-67
2022/10/25 14:22:14;;;;;;;4.15;3.25;;;22.60;99.90;;;;;;6228524;28;82934;-67
2022/10/25 14:25:21;;;;;;;4.35;3.50;;;22.60;99.90;;;;;;6223202;28;82956;-67
2022/10/25 14:28:26;;;;;;;3.90;3.33;;;22.60;99.90;;;;;;6224485;28;83887;-67
2022/10/25 14:31:29;;;;;;;3.65;3.05;;;22.60;99.90;;;;;;6220901;28;84133;-67
2022/10/25 14:34:31;;;;;;;3.50;3.15;;;22.60;99.90;;;;;;6233280;28;84324;-67
2022/10/25 14:37:41;;;;;;;3.22;2.92;;;22.60;99.90;;;;;;6221331;28;82950;-67
2022/10/25 14:40:51;;;;;;;4.13;3.28;;;22.60;99.90;;;;;;6233484;28;84362;-67
2022/10/25 14:43:53;;;;;;;5.28;3.20;;;22.60;99.90;;;;;;6216452;28;84019;-67
2022/10/25 14:46:58;;;;;;;4.15;3.30;;;22.60;99.90;;;;;;6209272;28;84015;-67
2022/10/25 14:50:02;;;;;;;5.68;3.20;;;22.60;99.90;;;;;;6229411;28;82462;-67
2022/10/25 14:53:04;;;;;;;7.30;3.53;;;22.70;99.90;;;;;;6225596;28;84103;-67
2022/10/25 14:56:07;;;;;;;5.40;3.33;;;22.70;99.90;;;;;;6212283;28;84017;-67
2022/10/25 14:59:19;;;;;;;6.40;3.50;;;22.60;99.90;;;;;;6211891;28;84997;-67
2022/10/25 15:02:26;;;;;;;6.65;3.08;;;22.60;99.90;;;;;;6221974;28;83160;-67
2022/10/25 15:05:28;;;;;;;4.70;3.40;;;22.70;99.90;;;;;;6221466;28;84232;-67
2022/10/25 15:08:30;;;;;;;4.68;3.40;;;22.60;99.90;;;;;;6218112;28;83964;-67
2022/10/25 15:11:32;;;;;;;5.32;3.42;;;22.70;99.90;;;;;;6221598;28;84038;-67
2022/10/25 15:14:35;;;;;;;6.65;3.50;;;22.60;99.90;;;;;;6225370;28;83949;-67
2022/10/25 15:17:39;;;;;;;4.47;3.15;;;22.60;99.90;;;;;;6212187;28;84028;-67
2022/10/25 15:20:41;;;;;;;4.70;3.33;;;22.60;99.90;;;;;;6210853;28;82288;-67
2022/10/25 15:24:04;;;;;;;3.95;3.15;;;22.60;99.90;;;;;;6216038;28;84185;-66
2022/10/25 15:27:30;;;;;;;4.57;3.20;;;22.70;99.90;;;;;;6212503;28;83638;-66
2022/10/25 15:30:34;;;;;;;4.82;2.90;;;22.60;99.90;;;;;;6214507;28;85081;-66
2022/10/25 15:33:38;;;;;;;4.85;2.70;;;22.60;99.90;;;;;;6210455;28;83067;-67
2022/10/25 15:36:40;;;;;;;5.25;3.13;;;22.60;99.90;;;;;;6214521;28;84016;-66
2022/10/25 15:39:43;;;;;;;3.90;2.60;;;22.60;99.90;;;;;;6215553;28;83250;-66
2022/10/25 15:42:45;;;;;;;4.68;2.70;;;22.60;99.90;;;;;;6209101;28;83008;-66
2022/10/25 15:45:47;;;;;;;3.80;2.50;;;22.50;99.90;;;;;;6221925;28;84576;-66
2022/10/25 15:48:50;;;;;;;6.75;2.63;;;22.50;99.90;;;;;;6206485;28;82906;-66
2022/10/25 15:51:53;;;;;;;4.90;2.70;;;22.50;99.90;;;;;;6216093;28;83202;-67
2022/10/25 15:54:55;;;;;;;4.50;3.00;;;22.50;99.90;;;;;;6214830;28;83003;-66
2022/10/25 15:57:57;;;;;;;4.75;2.30;;;22.50;99.90;;;;;;6212939;28;84084;-67
2022/10/25 16:00:59;;;;;;;4.22;2.50;;;22.40;99.90;;;;;;6211789;28;84114;-67
2022/10/25 16:04:03;;;;;;;3.80;2.38;;;22.50;99.90;;;;;;6220775;28;83995;-67
2022/10/25 16:07:05;;;;;;;2.78;2.08;;;22.40;99.90;;;;;;6224049;28;84511;-66
2022/10/25 16:10:08;;;;;;;5.40;2.35;;;22.50;99.90;;;;;;6218693;28;84189;-66